sensor_id;sensor_type;location;lat;lon;timestamp;P1;durP1;ratioP1;P2;durP2;ratioP2
2386;SDS011;49473;50.772;8.768;2023-05-07T00:02:17;5.43;;;4.07;;
2386;SDS011;49473;50.772;8.768;2023-05-07T00:04:44;4.27;;;3.90;;
2386;SDS011;49473;50.772;8.768;2023-05-07T00:07:11;6.00;;;4.07;;
2386;SDS011;49473;50.772;8.768;2023-05-07T00:09:38;4.83;;;4.10;;
2386;SDS011;49473;50.772;8.768;2023-05-07T00:12:05;3.87;;;3.57;;
2386;SDS011;49473;50.772;8.768;2023-05-07T00:14:32;3.50;;;3.20;;
2386;SDS011;49473;50.772;8.768;2023-05-07T00:17:00;8.00;;;3.87;;
2386;SDS011;49473;50.772;8.768;2023-05-07T00:19:27;6.20;;;4.00;;
2386;SDS011;49473;50.772;8.768;2023-05-07T00:21:53;4.90;;;4.37;;
2386;SDS011;49473;50.772;8.768;2023-05-07T00:24:20;7.30;;;4.20;;
2386;SDS011;49473;50.772;8.768;2023-05-07T00:26:47;4.20;;;3.90;;
2386;SDS011;49473;50.772;8.768;2023-05-07T00:29:14;4.60;;;4.20;;
2386;SDS011;49473;50.772;8.768;2023-05-07T00:31:41;4.47;;;4.07;;
2386;SDS011;49473;50.772;8.768;2023-05-07T00:34:09;3.83;;;3.53;;
2386;SDS011;49473;50.772;8.768;2023-05-07T00:36:36;3.80;;;3.20;;
2386;SDS011;49473;50.772;8.768;2023-05-07T00:39:03;4.10;;;3.80;;
2386;SDS011;49473;50.772;8.768;2023-05-07T00:41:30;4.20;;;3.90;;
2386;SDS011;49473;50.772;8.768;2023-05-07T00:43:56;3.80;;;3.43;;
2386;SDS011;49473;50.772;8.768;2023-05-07T00:46:23;3.80;;;3.50;;
2386;SDS011;49473;50.772;8.768;2023-05-07T00:48:51;3.77;;;3.47;;
2386;SDS011;49473;50.772;8.768;2023-05-07T00:51:19;4.50;;;4.20;;
2386;SDS011;49473;50.772;8.768;2023-05-07T00:53:46;6.93;;;4.07;;
2386;SDS011;49473;50.772;8.768;2023-05-07T00:56:13;3.80;;;3.60;;
2386;SDS011;49473;50.772;8.768;2023-05-07T00:58:40;5.70;;;4.20;;
2386;SDS011;49473;50.772;8.768;2023-05-07T01:01:07;3.40;;;3.20;;
2386;SDS011;49473;50.772;8.768;2023-05-07T01:03:34;4.40;;;4.00;;
2386;SDS011;49473;50.772;8.768;2023-05-07T01:06:01;5.20;;;4.20;;
2386;SDS011;49473;50.772;8.768;2023-05-07T01:08:30;4.40;;;4.10;;
2386;SDS011;49473;50.772;8.768;2023-05-07T01:11:00;4.10;;;3.80;;
2386;SDS011;49473;50.772;8.768;2023-05-07T01:13:27;4.80;;;3.40;;
2386;SDS011;49473;50.772;8.768;2023-05-07T01:15:54;4.60;;;4.20;;
2386;SDS011;49473;50.772;8.768;2023-05-07T01:18:20;5.13;;;4.47;;
2386;SDS011;49473;50.772;8.768;2023-05-07T01:20:48;4.60;;;4.30;;
2386;SDS011;49473;50.772;8.768;2023-05-07T01:23:16;6.50;;;4.73;;
2386;SDS011;49473;50.772;8.768;2023-05-07T01:25:50;5.10;;;4.70;;
2386;SDS011;49473;50.772;8.768;2023-05-07T01:28:17;4.93;;;4.53;;
2386;SDS011;49473;50.772;8.768;2023-05-07T01:30:44;4.80;;;4.50;;
2386;SDS011;49473;50.772;8.768;2023-05-07T01:33:14;5.50;;;4.70;;
2386;SDS011;49473;50.772;8.768;2023-05-07T01:35:45;4.63;;;4.33;;
2386;SDS011;49473;50.772;8.768;2023-05-07T01:38:17;4.50;;;4.13;;
2386;SDS011;49473;50.772;8.768;2023-05-07T01:40:46;6.00;;;4.90;;
2386;SDS011;49473;50.772;8.768;2023-05-07T01:43:13;5.43;;;4.93;;
2386;SDS011;49473;50.772;8.768;2023-05-07T01:45:40;5.30;;;4.80;;
2386;SDS011;49473;50.772;8.768;2023-05-07T01:48:09;4.67;;;4.27;;
2386;SDS011;49473;50.772;8.768;2023-05-07T01:50:38;4.50;;;4.10;;
2386;SDS011;49473;50.772;8.768;2023-05-07T01:53:06;5.40;;;4.43;;
2386;SDS011;49473;50.772;8.768;2023-05-07T01:55:34;4.83;;;4.43;;
2386;SDS011;49473;50.772;8.768;2023-05-07T01:58:01;5.07;;;4.57;;
2386;SDS011;49473;50.772;8.768;2023-05-07T02:00:28;4.70;;;4.30;;
2386;SDS011;49473;50.772;8.768;2023-05-07T02:02:55;5.17;;;4.60;;
2386;SDS011;49473;50.772;8.768;2023-05-07T02:05:22;5.83;;;4.83;;
2386;SDS011;49473;50.772;8.768;2023-05-07T02:07:49;4.80;;;4.40;;
2386;SDS011;49473;50.772;8.768;2023-05-07T02:10:16;5.70;;;5.07;;
2386;SDS011;49473;50.772;8.768;2023-05-07T02:12:44;5.17;;;4.70;;
2386;SDS011;49473;50.772;8.768;2023-05-07T02:15:11;4.53;;;3.80;;
2386;SDS011;49473;50.772;8.768;2023-05-07T02:17:39;5.00;;;4.50;;
2386;SDS011;49473;50.772;8.768;2023-05-07T02:20:23;6.07;;;4.83;;
2386;SDS011;49473;50.772;8.768;2023-05-07T02:22:50;5.17;;;4.70;;
2386;SDS011;49473;50.772;8.768;2023-05-07T02:25:16;4.30;;;4.00;;
2386;SDS011;49473;50.772;8.768;2023-05-07T02:27:46;6.87;;;5.50;;
2386;SDS011;49473;50.772;8.768;2023-05-07T02:30:13;6.33;;;5.83;;
2386;SDS011;49473;50.772;8.768;2023-05-07T02:32:40;7.77;;;5.97;;
2386;SDS011;49473;50.772;8.768;2023-05-07T02:35:07;7.47;;;6.83;;
2386;SDS011;49473;50.772;8.768;2023-05-07T02:37:34;6.67;;;5.97;;
2386;SDS011;49473;50.772;8.768;2023-05-07T02:40:01;7.27;;;6.67;;
2386;SDS011;49473;50.772;8.768;2023-05-07T02:42:29;6.40;;;5.80;;
2386;SDS011;49473;50.772;8.768;2023-05-07T02:44:57;6.10;;;5.70;;
2386;SDS011;49473;50.772;8.768;2023-05-07T02:47:24;6.03;;;5.60;;
2386;SDS011;49473;50.772;8.768;2023-05-07T02:49:51;7.67;;;6.60;;
2386;SDS011;49473;50.772;8.768;2023-05-07T02:52:18;7.10;;;6.40;;
2386;SDS011;49473;50.772;8.768;2023-05-07T02:54:45;8.00;;;7.30;;
2386;SDS011;49473;50.772;8.768;2023-05-07T02:57:12;8.27;;;7.43;;
2386;SDS011;49473;50.772;8.768;2023-05-07T02:59:39;7.87;;;7.20;;
2386;SDS011;49473;50.772;8.768;2023-05-07T03:02:07;7.60;;;6.87;;
2386;SDS011;49473;50.772;8.768;2023-05-07T03:04:34;7.73;;;7.13;;
2386;SDS011;49473;50.772;8.768;2023-05-07T03:07:00;7.37;;;6.77;;
2386;SDS011;49473;50.772;8.768;2023-05-07T03:09:27;8.20;;;7.30;;
2386;SDS011;49473;50.772;8.768;2023-05-07T03:11:54;7.80;;;7.10;;
2386;SDS011;49473;50.772;8.768;2023-05-07T03:14:21;7.10;;;6.60;;
2386;SDS011;49473;50.772;8.768;2023-05-07T03:16:48;8.00;;;7.20;;
2386;SDS011;49473;50.772;8.768;2023-05-07T03:19:17;9.63;;;8.93;;
2386;SDS011;49473;50.772;8.768;2023-05-07T03:21:44;10.13;;;9.23;;
2386;SDS011;49473;50.772;8.768;2023-05-07T03:24:10;10.40;;;9.60;;
2386;SDS011;49473;50.772;8.768;2023-05-07T03:26:38;9.87;;;9.07;;
2386;SDS011;49473;50.772;8.768;2023-05-07T03:29:04;10.50;;;9.57;;
2386;SDS011;49473;50.772;8.768;2023-05-07T03:31:31;10.37;;;9.40;;
2386;SDS011;49473;50.772;8.768;2023-05-07T03:33:58;11.13;;;10.03;;
2386;SDS011;49473;50.772;8.768;2023-05-07T03:36:26;10.97;;;10.17;;
2386;SDS011;49473;50.772;8.768;2023-05-07T03:38:53;20.20;;;12.20;;
2386;SDS011;49473;50.772;8.768;2023-05-07T03:41:20;11.90;;;10.73;;
2386;SDS011;49473;50.772;8.768;2023-05-07T03:43:47;14.00;;;12.80;;
2386;SDS011;49473;50.772;8.768;2023-05-07T03:46:14;14.20;;;13.00;;
2386;SDS011;49473;50.772;8.768;2023-05-07T03:48:40;14.43;;;13.00;;
2386;SDS011;49473;50.772;8.768;2023-05-07T03:51:07;12.83;;;11.73;;
2386;SDS011;49473;50.772;8.768;2023-05-07T03:53:35;13.87;;;12.67;;
2386;SDS011;49473;50.772;8.768;2023-05-07T03:56:02;11.97;;;10.97;;
2386;SDS011;49473;50.772;8.768;2023-05-07T03:58:29;11.40;;;10.27;;
2386;SDS011;49473;50.772;8.768;2023-05-07T04:00:56;11.00;;;10.10;;
2386;SDS011;49473;50.772;8.768;2023-05-07T04:03:23;12.00;;;10.80;;
2386;SDS011;49473;50.772;8.768;2023-05-07T04:05:50;11.67;;;10.67;;
2386;SDS011;49473;50.772;8.768;2023-05-07T04:08:16;12.57;;;11.57;;
2386;SDS011;49473;50.772;8.768;2023-05-07T04:10:44;11.80;;;10.70;;
2386;SDS011;49473;50.772;8.768;2023-05-07T04:13:11;12.50;;;11.40;;
2386;SDS011;49473;50.772;8.768;2023-05-07T04:15:38;13.03;;;11.60;;
2386;SDS011;49473;50.772;8.768;2023-05-07T04:18:04;15.03;;;11.40;;
2386;SDS011;49473;50.772;8.768;2023-05-07T04:20:33;13.37;;;12.27;;
2386;SDS011;49473;50.772;8.768;2023-05-07T04:23:01;13.00;;;11.97;;
2386;SDS011;49473;50.772;8.768;2023-05-07T04:25:28;13.53;;;12.20;;
2386;SDS011;49473;50.772;8.768;2023-05-07T04:27:57;13.23;;;11.93;;
2386;SDS011;49473;50.772;8.768;2023-05-07T04:30:23;13.53;;;12.27;;
2386;SDS011;49473;50.772;8.768;2023-05-07T04:32:50;15.07;;;13.67;;
2386;SDS011;49473;50.772;8.768;2023-05-07T04:35:18;13.80;;;12.57;;
2386;SDS011;49473;50.772;8.768;2023-05-07T04:37:45;17.93;;;16.20;;
2386;SDS011;49473;50.772;8.768;2023-05-07T04:40:11;17.07;;;15.43;;
2386;SDS011;49473;50.772;8.768;2023-05-07T04:42:38;17.70;;;16.00;;
2386;SDS011;49473;50.772;8.768;2023-05-07T04:45:07;17.63;;;15.83;;
2386;SDS011;49473;50.772;8.768;2023-05-07T04:47:35;16.93;;;15.37;;
2386;SDS011;49473;50.772;8.768;2023-05-07T04:50:02;16.97;;;15.57;;
2386;SDS011;49473;50.772;8.768;2023-05-07T04:52:29;17.10;;;15.50;;
2386;SDS011;49473;50.772;8.768;2023-05-07T04:54:56;16.90;;;15.10;;
2386;SDS011;49473;50.772;8.768;2023-05-07T04:57:24;16.83;;;15.43;;
2386;SDS011;49473;50.772;8.768;2023-05-07T04:59:51;17.53;;;15.97;;
2386;SDS011;49473;50.772;8.768;2023-05-07T05:02:20;17.07;;;15.00;;
2386;SDS011;49473;50.772;8.768;2023-05-07T05:04:46;17.60;;;15.90;;
2386;SDS011;49473;50.772;8.768;2023-05-07T05:07:13;16.87;;;15.47;;
2386;SDS011;49473;50.772;8.768;2023-05-07T05:09:40;17.17;;;15.77;;
2386;SDS011;49473;50.772;8.768;2023-05-07T05:12:07;17.50;;;15.80;;
2386;SDS011;49473;50.772;8.768;2023-05-07T05:14:34;18.03;;;16.53;;
2386;SDS011;49473;50.772;8.768;2023-05-07T05:17:00;17.13;;;15.63;;
2386;SDS011;49473;50.772;8.768;2023-05-07T05:19:28;15.97;;;14.77;;
2386;SDS011;49473;50.772;8.768;2023-05-07T05:21:55;17.20;;;15.40;;
2386;SDS011;49473;50.772;8.768;2023-05-07T05:24:22;18.87;;;17.07;;
2386;SDS011;49473;50.772;8.768;2023-05-07T05:26:49;16.07;;;14.77;;
2386;SDS011;49473;50.772;8.768;2023-05-07T05:29:15;17.40;;;15.90;;
2386;SDS011;49473;50.772;8.768;2023-05-07T05:31:42;17.37;;;15.97;;
2386;SDS011;49473;50.772;8.768;2023-05-07T05:34:09;17.70;;;16.13;;
2386;SDS011;49473;50.772;8.768;2023-05-07T05:36:37;17.80;;;16.10;;
2386;SDS011;49473;50.772;8.768;2023-05-07T05:39:04;18.47;;;16.80;;
2386;SDS011;49473;50.772;8.768;2023-05-07T05:41:30;17.30;;;15.70;;
2386;SDS011;49473;50.772;8.768;2023-05-07T05:43:57;18.57;;;16.97;;
2386;SDS011;49473;50.772;8.768;2023-05-07T05:46:24;16.57;;;15.13;;
2386;SDS011;49473;50.772;8.768;2023-05-07T05:48:51;17.90;;;16.30;;
2386;SDS011;49473;50.772;8.768;2023-05-07T05:51:17;18.27;;;16.43;;
2386;SDS011;49473;50.772;8.768;2023-05-07T05:53:45;17.83;;;16.23;;
2386;SDS011;49473;50.772;8.768;2023-05-07T05:56:12;21.23;;;16.57;;
2386;SDS011;49473;50.772;8.768;2023-05-07T05:58:39;17.40;;;15.90;;
2386;SDS011;49473;50.772;8.768;2023-05-07T06:01:06;18.10;;;16.37;;
2386;SDS011;49473;50.772;8.768;2023-05-07T06:03:33;18.70;;;17.00;;
2386;SDS011;49473;50.772;8.768;2023-05-07T06:06:00;19.30;;;17.50;;
2386;SDS011;49473;50.772;8.768;2023-05-07T06:08:28;19.77;;;17.93;;
2386;SDS011;49473;50.772;8.768;2023-05-07T06:10:57;20.53;;;18.47;;
2386;SDS011;49473;50.772;8.768;2023-05-07T06:13:24;19.57;;;17.67;;
2386;SDS011;49473;50.772;8.768;2023-05-07T06:15:51;19.33;;;17.63;;
2386;SDS011;49473;50.772;8.768;2023-05-07T06:18:18;21.40;;;19.50;;
2386;SDS011;49473;50.772;8.768;2023-05-07T06:20:44;20.37;;;18.47;;
2386;SDS011;49473;50.772;8.768;2023-05-07T06:23:12;17.87;;;16.40;;
2386;SDS011;49473;50.772;8.768;2023-05-07T06:25:45;19.43;;;17.50;;
2386;SDS011;49473;50.772;8.768;2023-05-07T06:28:17;19.00;;;17.30;;
2386;SDS011;49473;50.772;8.768;2023-05-07T06:30:44;19.77;;;17.97;;
2386;SDS011;49473;50.772;8.768;2023-05-07T06:33:11;18.20;;;16.50;;
2386;SDS011;49473;50.772;8.768;2023-05-07T06:35:38;20.23;;;18.13;;
2386;SDS011;49473;50.772;8.768;2023-05-07T06:38:05;20.30;;;18.50;;
2386;SDS011;49473;50.772;8.768;2023-05-07T06:40:32;20.30;;;18.47;;
2386;SDS011;49473;50.772;8.768;2023-05-07T06:42:58;21.23;;;19.33;;
2386;SDS011;49473;50.772;8.768;2023-05-07T06:45:27;20.27;;;18.27;;
2386;SDS011;49473;50.772;8.768;2023-05-07T06:47:53;19.73;;;18.00;;
2386;SDS011;49473;50.772;8.768;2023-05-07T06:50:20;19.33;;;17.60;;
2386;SDS011;49473;50.772;8.768;2023-05-07T06:52:47;19.50;;;17.80;;
2386;SDS011;49473;50.772;8.768;2023-05-07T06:55:14;18.63;;;16.90;;
2386;SDS011;49473;50.772;8.768;2023-05-07T06:57:41;19.43;;;17.63;;
2386;SDS011;49473;50.772;8.768;2023-05-07T07:00:08;19.17;;;17.57;;
2386;SDS011;49473;50.772;8.768;2023-05-07T07:02:37;21.30;;;19.30;;
2386;SDS011;49473;50.772;8.768;2023-05-07T07:05:04;20.77;;;18.77;;
2386;SDS011;49473;50.772;8.768;2023-05-07T07:07:32;19.97;;;18.10;;
2386;SDS011;49473;50.772;8.768;2023-05-07T07:09:59;19.33;;;17.63;;
2386;SDS011;49473;50.772;8.768;2023-05-07T07:12:25;20.67;;;18.67;;
2386;SDS011;49473;50.772;8.768;2023-05-07T07:14:53;19.13;;;17.33;;
2386;SDS011;49473;50.772;8.768;2023-05-07T07:17:20;19.07;;;17.33;;
2386;SDS011;49473;50.772;8.768;2023-05-07T07:19:49;19.10;;;17.50;;
2386;SDS011;49473;50.772;8.768;2023-05-07T07:22:16;19.40;;;17.70;;
2386;SDS011;49473;50.772;8.768;2023-05-07T07:24:42;21.53;;;19.40;;
2386;SDS011;49473;50.772;8.768;2023-05-07T07:27:09;18.30;;;16.70;;
2386;SDS011;49473;50.772;8.768;2023-05-07T07:29:36;20.03;;;17.93;;
2386;SDS011;49473;50.772;8.768;2023-05-07T07:32:03;20.90;;;19.00;;
2386;SDS011;49473;50.772;8.768;2023-05-07T07:34:30;18.90;;;17.40;;
2386;SDS011;49473;50.772;8.768;2023-05-07T07:36:58;17.37;;;15.87;;
2386;SDS011;49473;50.772;8.768;2023-05-07T07:39:30;19.20;;;17.23;;
2386;SDS011;49473;50.772;8.768;2023-05-07T07:41:57;18.20;;;16.70;;
2386;SDS011;49473;50.772;8.768;2023-05-07T07:44:24;19.07;;;17.47;;
2386;SDS011;49473;50.772;8.768;2023-05-07T07:46:50;18.47;;;16.97;;
2386;SDS011;49473;50.772;8.768;2023-05-07T07:49:18;18.50;;;17.00;;
2386;SDS011;49473;50.772;8.768;2023-05-07T07:51:44;16.90;;;15.50;;
2386;SDS011;49473;50.772;8.768;2023-05-07T07:54:12;17.90;;;16.50;;
2386;SDS011;49473;50.772;8.768;2023-05-07T07:56:39;16.60;;;15.20;;
2386;SDS011;49473;50.772;8.768;2023-05-07T07:59:06;17.73;;;16.33;;
2386;SDS011;49473;50.772;8.768;2023-05-07T08:01:33;17.40;;;15.90;;
2386;SDS011;49473;50.772;8.768;2023-05-07T08:04:00;15.07;;;13.97;;
2386;SDS011;49473;50.772;8.768;2023-05-07T08:06:28;16.83;;;15.27;;
2386;SDS011;49473;50.772;8.768;2023-05-07T08:08:54;17.13;;;15.73;;
2386;SDS011;49473;50.772;8.768;2023-05-07T08:11:23;15.90;;;14.50;;
2386;SDS011;49473;50.772;8.768;2023-05-07T08:13:50;13.33;;;12.33;;
2386;SDS011;49473;50.772;8.768;2023-05-07T08:16:17;14.03;;;12.93;;
2386;SDS011;49473;50.772;8.768;2023-05-07T08:18:43;14.80;;;13.60;;
2386;SDS011;49473;50.772;8.768;2023-05-07T08:21:10;14.60;;;13.40;;
2386;SDS011;49473;50.772;8.768;2023-05-07T08:23:37;14.47;;;13.37;;
2386;SDS011;49473;50.772;8.768;2023-05-07T08:26:04;13.40;;;12.30;;
2386;SDS011;49473;50.772;8.768;2023-05-07T08:28:32;13.87;;;12.73;;
2386;SDS011;49473;50.772;8.768;2023-05-07T08:30:59;14.60;;;13.40;;
2386;SDS011;49473;50.772;8.768;2023-05-07T08:33:26;13.27;;;12.20;;
2386;SDS011;49473;50.772;8.768;2023-05-07T08:35:52;13.23;;;12.23;;
2386;SDS011;49473;50.772;8.768;2023-05-07T08:38:19;12.40;;;11.40;;
2386;SDS011;49473;50.772;8.768;2023-05-07T08:40:46;12.40;;;11.47;;
2386;SDS011;49473;50.772;8.768;2023-05-07T08:43:13;14.10;;;13.03;;
2386;SDS011;49473;50.772;8.768;2023-05-07T08:45:41;11.97;;;11.07;;
2386;SDS011;49473;50.772;8.768;2023-05-07T08:48:14;13.77;;;12.77;;
2386;SDS011;49473;50.772;8.768;2023-05-07T08:50:41;13.33;;;12.33;;
2386;SDS011;49473;50.772;8.768;2023-05-07T08:53:08;13.23;;;12.07;;
2386;SDS011;49473;50.772;8.768;2023-05-07T08:55:35;14.37;;;13.17;;
2386;SDS011;49473;50.772;8.768;2023-05-07T08:58:02;13.67;;;12.43;;
2386;SDS011;49473;50.772;8.768;2023-05-07T09:00:29;13.80;;;12.63;;
2386;SDS011;49473;50.772;8.768;2023-05-07T09:02:57;16.20;;;14.80;;
2386;SDS011;49473;50.772;8.768;2023-05-07T09:05:24;14.53;;;13.43;;
2386;SDS011;49473;50.772;8.768;2023-05-07T09:07:51;13.47;;;12.30;;
2386;SDS011;49473;50.772;8.768;2023-05-07T09:10:18;14.20;;;13.00;;
2386;SDS011;49473;50.772;8.768;2023-05-07T09:12:46;14.00;;;12.80;;
2386;SDS011;49473;50.772;8.768;2023-05-07T09:15:13;12.60;;;11.60;;
2386;SDS011;49473;50.772;8.768;2023-05-07T09:17:40;14.40;;;13.17;;
2386;SDS011;49473;50.772;8.768;2023-05-07T09:20:09;12.57;;;11.57;;
2386;SDS011;49473;50.772;8.768;2023-05-07T09:22:36;10.80;;;10.00;;
2386;SDS011;49473;50.772;8.768;2023-05-07T09:25:03;14.80;;;13.70;;
2386;SDS011;49473;50.772;8.768;2023-05-07T09:27:30;11.97;;;11.07;;
2386;SDS011;49473;50.772;8.768;2023-05-07T09:29:57;13.40;;;12.30;;
2386;SDS011;49473;50.772;8.768;2023-05-07T09:32:24;11.47;;;10.67;;
2386;SDS011;49473;50.772;8.768;2023-05-07T09:34:52;11.93;;;10.93;;
2386;SDS011;49473;50.772;8.768;2023-05-07T09:37:20;13.67;;;12.57;;
2386;SDS011;49473;50.772;8.768;2023-05-07T09:39:49;12.87;;;11.87;;
2386;SDS011;49473;50.772;8.768;2023-05-07T09:42:16;12.17;;;11.17;;
2386;SDS011;49473;50.772;8.768;2023-05-07T09:44:49;11.50;;;10.60;;
2386;SDS011;49473;50.772;8.768;2023-05-07T09:47:18;12.43;;;11.43;;
2386;SDS011;49473;50.772;8.768;2023-05-07T09:49:47;12.97;;;11.87;;
2386;SDS011;49473;50.772;8.768;2023-05-07T09:52:14;12.87;;;11.67;;
2386;SDS011;49473;50.772;8.768;2023-05-07T09:54:44;12.53;;;11.33;;
2386;SDS011;49473;50.772;8.768;2023-05-07T09:57:13;12.93;;;11.63;;
2386;SDS011;49473;50.772;8.768;2023-05-07T09:59:40;12.53;;;11.53;;
2386;SDS011;49473;50.772;8.768;2023-05-07T10:02:09;10.60;;;9.80;;
2386;SDS011;49473;50.772;8.768;2023-05-07T10:04:36;9.73;;;9.00;;
2386;SDS011;49473;50.772;8.768;2023-05-07T10:07:03;9.83;;;9.00;;
2386;SDS011;49473;50.772;8.768;2023-05-07T10:09:31;10.00;;;9.20;;
2386;SDS011;49473;50.772;8.768;2023-05-07T10:12:00;8.90;;;8.10;;
2386;SDS011;49473;50.772;8.768;2023-05-07T10:14:27;9.23;;;8.50;;
2386;SDS011;49473;50.772;8.768;2023-05-07T10:16:54;9.57;;;8.63;;
2386;SDS011;49473;50.772;8.768;2023-05-07T10:19:22;9.27;;;8.67;;
2386;SDS011;49473;50.772;8.768;2023-05-07T10:21:51;8.60;;;8.00;;
2386;SDS011;49473;50.772;8.768;2023-05-07T10:24:22;9.60;;;8.73;;
2386;SDS011;49473;50.772;8.768;2023-05-07T10:26:53;8.77;;;8.17;;
2386;SDS011;49473;50.772;8.768;2023-05-07T10:29:32;10.77;;;9.40;;
2386;SDS011;49473;50.772;8.768;2023-05-07T10:32:10;10.97;;;10.10;;
2386;SDS011;49473;50.772;8.768;2023-05-07T10:34:48;11.40;;;10.50;;
2386;SDS011;49473;50.772;8.768;2023-05-07T10:37:19;10.73;;;9.70;;
2386;SDS011;49473;50.772;8.768;2023-05-07T10:39:46;8.90;;;8.27;;
2386;SDS011;49473;50.772;8.768;2023-05-07T10:42:14;9.23;;;8.63;;
2386;SDS011;49473;50.772;8.768;2023-05-07T10:44:42;9.17;;;8.47;;
2386;SDS011;49473;50.772;8.768;2023-05-07T10:47:09;9.33;;;8.53;;
2386;SDS011;49473;50.772;8.768;2023-05-07T10:49:42;9.63;;;8.83;;
2386;SDS011;49473;50.772;8.768;2023-05-07T10:58:55;9.37;;;8.77;;
2386;SDS011;49473;50.772;8.768;2023-05-07T11:04:19;9.27;;;8.57;;
2386;SDS011;49473;50.772;8.768;2023-05-07T11:10:04;9.33;;;8.53;;
2386;SDS011;49473;50.772;8.768;2023-05-07T11:12:51;10.63;;;9.67;;
2386;SDS011;49473;50.772;8.768;2023-05-07T11:15:38;8.60;;;7.90;;
2386;SDS011;49473;50.772;8.768;2023-05-07T11:18:08;9.70;;;8.90;;
2386;SDS011;49473;50.772;8.768;2023-05-07T11:26:21;8.43;;;7.83;;
2386;SDS011;49473;50.772;8.768;2023-05-07T11:28:48;8.40;;;7.73;;
2386;SDS011;49473;50.772;8.768;2023-05-07T11:31:17;8.10;;;7.50;;
2386;SDS011;49473;50.772;8.768;2023-05-07T11:33:49;8.30;;;7.60;;
2386;SDS011;49473;50.772;8.768;2023-05-07T11:36:17;7.10;;;6.60;;
2386;SDS011;49473;50.772;8.768;2023-05-07T11:38:44;8.10;;;7.20;;
2386;SDS011;49473;50.772;8.768;2023-05-07T11:41:11;8.43;;;7.73;;
2386;SDS011;49473;50.772;8.768;2023-05-07T11:43:38;7.87;;;7.27;;
2386;SDS011;49473;50.772;8.768;2023-05-07T11:46:20;7.67;;;7.07;;
2386;SDS011;49473;50.772;8.768;2023-05-07T11:48:47;7.80;;;7.20;;
2386;SDS011;49473;50.772;8.768;2023-05-07T11:51:15;6.93;;;6.43;;
2386;SDS011;49473;50.772;8.768;2023-05-07T11:53:45;7.30;;;6.60;;
2386;SDS011;49473;50.772;8.768;2023-05-07T11:56:12;7.70;;;7.10;;
2386;SDS011;49473;50.772;8.768;2023-05-07T11:58:41;7.33;;;6.73;;
2386;SDS011;49473;50.772;8.768;2023-05-07T12:01:09;7.30;;;6.70;;
2386;SDS011;49473;50.772;8.768;2023-05-07T12:03:37;7.40;;;6.60;;
2386;SDS011;49473;50.772;8.768;2023-05-07T12:06:07;8.03;;;7.43;;
2386;SDS011;49473;50.772;8.768;2023-05-07T12:08:37;8.20;;;7.40;;
2386;SDS011;49473;50.772;8.768;2023-05-07T12:11:07;7.50;;;6.90;;
2386;SDS011;49473;50.772;8.768;2023-05-07T12:13:36;7.47;;;6.87;;
2386;SDS011;49473;50.772;8.768;2023-05-07T12:16:03;7.80;;;7.13;;
2386;SDS011;49473;50.772;8.768;2023-05-07T12:18:31;7.80;;;7.30;;
2386;SDS011;49473;50.772;8.768;2023-05-07T12:21:00;6.80;;;6.30;;
2386;SDS011;49473;50.772;8.768;2023-05-07T12:23:27;6.73;;;6.23;;
2386;SDS011;49473;50.772;8.768;2023-05-07T12:25:56;6.80;;;6.30;;
2386;SDS011;49473;50.772;8.768;2023-05-07T12:28:23;7.70;;;6.97;;
2386;SDS011;49473;50.772;8.768;2023-05-07T12:30:50;6.60;;;6.20;;
2386;SDS011;49473;50.772;8.768;2023-05-07T12:33:18;6.23;;;5.77;;
2386;SDS011;49473;50.772;8.768;2023-05-07T12:35:46;6.27;;;5.77;;
2386;SDS011;49473;50.772;8.768;2023-05-07T12:38:15;5.60;;;5.20;;
2386;SDS011;49473;50.772;8.768;2023-05-07T12:40:44;5.77;;;5.37;;
2386;SDS011;49473;50.772;8.768;2023-05-07T12:43:16;6.50;;;6.10;;
2386;SDS011;49473;50.772;8.768;2023-05-07T12:45:44;6.93;;;6.43;;
2386;SDS011;49473;50.772;8.768;2023-05-07T12:48:12;5.80;;;5.40;;
2386;SDS011;49473;50.772;8.768;2023-05-07T12:50:39;6.17;;;5.67;;
2386;SDS011;49473;50.772;8.768;2023-05-07T12:53:06;6.73;;;6.23;;
2386;SDS011;49473;50.772;8.768;2023-05-07T12:55:40;7.43;;;6.80;;
2386;SDS011;49473;50.772;8.768;2023-05-07T12:58:08;6.27;;;5.67;;
2386;SDS011;49473;50.772;8.768;2023-05-07T13:00:43;5.17;;;4.73;;
2386;SDS011;49473;50.772;8.768;2023-05-07T13:03:10;5.50;;;4.77;;
2386;SDS011;49473;50.772;8.768;2023-05-07T13:05:37;5.87;;;5.30;;
2386;SDS011;49473;50.772;8.768;2023-05-07T13:08:04;5.13;;;4.83;;
2386;SDS011;49473;50.772;8.768;2023-05-07T13:10:31;5.90;;;5.30;;
2386;SDS011;49473;50.772;8.768;2023-05-07T13:12:59;4.90;;;4.60;;
2386;SDS011;49473;50.772;8.768;2023-05-07T13:15:25;4.20;;;3.80;;
2386;SDS011;49473;50.772;8.768;2023-05-07T13:17:53;5.13;;;4.83;;
2386;SDS011;49473;50.772;8.768;2023-05-07T13:20:21;4.53;;;4.23;;
2386;SDS011;49473;50.772;8.768;2023-05-07T13:22:47;4.70;;;4.40;;
2386;SDS011;49473;50.772;8.768;2023-05-07T13:25:14;4.13;;;3.83;;
2386;SDS011;49473;50.772;8.768;2023-05-07T13:27:41;4.63;;;4.33;;
2386;SDS011;49473;50.772;8.768;2023-05-07T13:30:08;4.80;;;4.40;;
2386;SDS011;49473;50.772;8.768;2023-05-07T13:32:35;4.60;;;4.27;;
2386;SDS011;49473;50.772;8.768;2023-05-07T13:35:03;4.70;;;4.40;;
2386;SDS011;49473;50.772;8.768;2023-05-07T13:37:31;4.50;;;4.20;;
2386;SDS011;49473;50.772;8.768;2023-05-07T13:39:58;4.30;;;4.00;;
2386;SDS011;49473;50.772;8.768;2023-05-07T13:42:24;4.50;;;4.30;;
2386;SDS011;49473;50.772;8.768;2023-05-07T13:44:51;3.97;;;3.77;;
2386;SDS011;49473;50.772;8.768;2023-05-07T13:47:18;4.70;;;4.40;;
2386;SDS011;49473;50.772;8.768;2023-05-07T13:49:45;4.57;;;4.27;;
2386;SDS011;49473;50.772;8.768;2023-05-07T13:52:16;4.63;;;4.33;;
2386;SDS011;49473;50.772;8.768;2023-05-07T13:54:43;4.63;;;4.23;;
2386;SDS011;49473;50.772;8.768;2023-05-07T13:57:10;4.20;;;3.83;;
2386;SDS011;49473;50.772;8.768;2023-05-07T13:59:37;4.73;;;4.43;;
2386;SDS011;49473;50.772;8.768;2023-05-07T14:02:03;4.27;;;4.00;;
2386;SDS011;49473;50.772;8.768;2023-05-07T14:04:30;4.37;;;4.07;;
2386;SDS011;49473;50.772;8.768;2023-05-07T14:06:57;4.43;;;4.13;;
2386;SDS011;49473;50.772;8.768;2023-05-07T14:09:25;5.60;;;5.30;;
2386;SDS011;49473;50.772;8.768;2023-05-07T14:11:51;4.43;;;4.23;;
2386;SDS011;49473;50.772;8.768;2023-05-07T14:14:18;4.67;;;4.37;;
2386;SDS011;49473;50.772;8.768;2023-05-07T14:16:45;5.20;;;4.80;;
2386;SDS011;49473;50.772;8.768;2023-05-07T14:19:12;5.50;;;5.10;;
2386;SDS011;49473;50.772;8.768;2023-05-07T14:21:38;4.93;;;4.63;;
2386;SDS011;49473;50.772;8.768;2023-05-07T14:24:06;5.37;;;4.93;;
2386;SDS011;49473;50.772;8.768;2023-05-07T14:26:34;5.20;;;4.90;;
2386;SDS011;49473;50.772;8.768;2023-05-07T14:29:01;6.23;;;5.50;;
2386;SDS011;49473;50.772;8.768;2023-05-07T14:31:28;5.87;;;5.47;;
2386;SDS011;49473;50.772;8.768;2023-05-07T14:33:55;5.57;;;5.07;;
2386;SDS011;49473;50.772;8.768;2023-05-07T14:36:23;5.37;;;4.97;;
2386;SDS011;49473;50.772;8.768;2023-05-07T14:38:51;6.10;;;5.70;;
2386;SDS011;49473;50.772;8.768;2023-05-07T14:41:18;5.17;;;4.87;;
2386;SDS011;49473;50.772;8.768;2023-05-07T14:43:47;5.03;;;4.70;;
2386;SDS011;49473;50.772;8.768;2023-05-07T14:46:15;5.10;;;4.80;;
2386;SDS011;49473;50.772;8.768;2023-05-07T14:48:43;5.93;;;5.53;;
2386;SDS011;49473;50.772;8.768;2023-05-07T14:51:10;5.57;;;5.07;;
2386;SDS011;49473;50.772;8.768;2023-05-07T14:53:37;5.23;;;4.83;;
2386;SDS011;49473;50.772;8.768;2023-05-07T14:56:04;5.13;;;4.63;;
2386;SDS011;49473;50.772;8.768;2023-05-07T14:58:31;5.50;;;5.10;;
2386;SDS011;49473;50.772;8.768;2023-05-07T15:00:59;5.47;;;5.07;;
2386;SDS011;49473;50.772;8.768;2023-05-07T15:03:26;5.13;;;4.73;;
2386;SDS011;49473;50.772;8.768;2023-05-07T15:05:53;4.83;;;4.50;;
2386;SDS011;49473;50.772;8.768;2023-05-07T15:08:20;4.67;;;4.27;;
2386;SDS011;49473;50.772;8.768;2023-05-07T15:10:47;5.53;;;4.80;;